sensor_id;sensor_type;location;lat;lon;timestamp;P1;durP1;ratioP1;P2;durP2;ratioP2
71253;SDS011;59019;47.638;18.966;2023-01-04T00:00:48;14.02;;;6.68;;
71253;SDS011;59019;47.638;18.966;2023-01-04T00:03:14;16.57;;;7.27;;
71253;SDS011;59019;47.638;18.966;2023-01-04T00:05:40;18.88;;;7.95;;
71253;SDS011;59019;47.638;18.966;2023-01-04T00:08:05;15.17;;;7.43;;
71253;SDS011;59019;47.638;18.966;2023-01-04T00:10:31;16.67;;;7.83;;
71253;SDS011;59019;47.638;18.966;2023-01-04T00:12:56;19.25;;;8.75;;
71253;SDS011;59019;47.638;18.966;2023-01-04T00:15:23;15.93;;;7.23;;
71253;SDS011;59019;47.638;18.966;2023-01-04T00:17:48;19.27;;;8.80;;
71253;SDS011;59019;47.638;18.966;2023-01-04T00:20:14;20.83;;;9.30;;
71253;SDS011;59019;47.638;18.966;2023-01-04T00:22:40;22.77;;;10.80;;
71253;SDS011;59019;47.638;18.966;2023-01-04T00:25:06;26.10;;;12.03;;
71253;SDS011;59019;47.638;18.966;2023-01-04T00:27:32;21.88;;;9.63;;
71253;SDS011;59019;47.638;18.966;2023-01-04T00:29:57;38.43;;;15.13;;
71253;SDS011;59019;47.638;18.966;2023-01-04T00:32:23;31.00;;;12.33;;
71253;SDS011;59019;47.638;18.966;2023-01-04T00:34:48;20.27;;;8.82;;
71253;SDS011;59019;47.638;18.966;2023-01-04T00:37:14;22.47;;;9.07;;
71253;SDS011;59019;47.638;18.966;2023-01-04T00:39:39;17.77;;;8.47;;
71253;SDS011;59019;47.638;18.966;2023-01-04T00:42:05;18.38;;;9.32;;
71253;SDS011;59019;47.638;18.966;2023-01-04T00:44:31;16.13;;;7.88;;
71253;SDS011;59019;47.638;18.966;2023-01-04T00:46:58;17.37;;;8.23;;
71253;SDS011;59019;47.638;18.966;2023-01-04T00:49:25;16.95;;;7.25;;
71253;SDS011;59019;47.638;18.966;2023-01-04T00:51:51;16.67;;;7.47;;
71253;SDS011;59019;47.638;18.966;2023-01-04T00:54:17;14.25;;;6.47;;
71253;SDS011;59019;47.638;18.966;2023-01-04T00:56:44;15.27;;;7.00;;
71253;SDS011;59019;47.638;18.966;2023-01-04T00:59:13;14.05;;;6.85;;
71253;SDS011;59019;47.638;18.966;2023-01-04T01:01:43;15.10;;;5.82;;
71253;SDS011;59019;47.638;18.966;2023-01-04T01:04:09;11.23;;;5.57;;
71253;SDS011;59019;47.638;18.966;2023-01-04T01:06:37;15.23;;;5.93;;
71253;SDS011;59019;47.638;18.966;2023-01-04T01:09:03;12.02;;;5.63;;
71253;SDS011;59019;47.638;18.966;2023-01-04T01:11:29;12.70;;;5.03;;
71253;SDS011;59019;47.638;18.966;2023-01-04T01:13:55;11.02;;;5.10;;
71253;SDS011;59019;47.638;18.966;2023-01-04T01:16:22;9.73;;;4.88;;
71253;SDS011;59019;47.638;18.966;2023-01-04T01:18:49;13.15;;;5.57;;
71253;SDS011;59019;47.638;18.966;2023-01-04T01:21:17;11.63;;;5.53;;
71253;SDS011;59019;47.638;18.966;2023-01-04T01:23:44;12.90;;;5.22;;
71253;SDS011;59019;47.638;18.966;2023-01-04T01:26:12;12.07;;;5.30;;
71253;SDS011;59019;47.638;18.966;2023-01-04T01:28:39;12.77;;;5.32;;
71253;SDS011;59019;47.638;18.966;2023-01-04T01:31:09;15.10;;;6.18;;
71253;SDS011;59019;47.638;18.966;2023-01-04T01:33:38;16.17;;;7.47;;
71253;SDS011;59019;47.638;18.966;2023-01-04T01:36:05;15.38;;;7.40;;
71253;SDS011;59019;47.638;18.966;2023-01-04T01:38:31;16.27;;;7.30;;
71253;SDS011;59019;47.638;18.966;2023-01-04T01:40:57;13.73;;;6.55;;
71253;SDS011;59019;47.638;18.966;2023-01-04T01:43:45;14.07;;;6.00;;
71253;SDS011;59019;47.638;18.966;2023-01-04T01:46:15;15.73;;;5.78;;
71253;SDS011;59019;47.638;18.966;2023-01-04T01:48:46;15.00;;;6.03;;
71253;SDS011;59019;47.638;18.966;2023-01-04T01:51:12;11.50;;;5.50;;
71253;SDS011;59019;47.638;18.966;2023-01-04T01:53:40;13.73;;;5.88;;
71253;SDS011;59019;47.638;18.966;2023-01-04T01:56:10;12.82;;;5.45;;
71253;SDS011;59019;47.638;18.966;2023-01-04T01:58:39;10.57;;;5.13;;
71253;SDS011;59019;47.638;18.966;2023-01-04T02:01:08;13.77;;;5.80;;
71253;SDS011;59019;47.638;18.966;2023-01-04T02:03:40;12.30;;;5.68;;
71253;SDS011;59019;47.638;18.966;2023-01-04T02:06:08;15.32;;;6.53;;
71253;SDS011;59019;47.638;18.966;2023-01-04T02:08:37;15.32;;;7.20;;
71253;SDS011;59019;47.638;18.966;2023-01-04T02:11:04;15.10;;;7.33;;
71253;SDS011;59019;47.638;18.966;2023-01-04T02:13:30;16.58;;;7.00;;
71253;SDS011;59019;47.638;18.966;2023-01-04T02:19:39;19.70;;;9.00;;
71253;SDS011;59019;47.638;18.966;2023-01-04T02:22:31;21.00;;;9.07;;
71253;SDS011;59019;47.638;18.966;2023-01-04T02:25:29;19.30;;;9.10;;
71253;SDS011;59019;47.638;18.966;2023-01-04T02:33:48;19.58;;;8.75;;
71253;SDS011;59019;47.638;18.966;2023-01-04T02:36:39;19.77;;;8.82;;
71253;SDS011;59019;47.638;18.966;2023-01-04T02:45:29;20.83;;;9.50;;
71253;SDS011;59019;47.638;18.966;2023-01-04T02:48:03;20.73;;;8.98;;
71253;SDS011;59019;47.638;18.966;2023-01-04T02:50:57;22.55;;;10.15;;
71253;SDS011;59019;47.638;18.966;2023-01-04T02:53:28;21.57;;;10.03;;
71253;SDS011;59019;47.638;18.966;2023-01-04T02:56:16;21.05;;;9.63;;
71253;SDS011;59019;47.638;18.966;2023-01-04T03:01:38;19.42;;;9.65;;
71253;SDS011;59019;47.638;18.966;2023-01-04T03:10:30;20.50;;;8.82;;
71253;SDS011;59019;47.638;18.966;2023-01-04T03:13:02;20.52;;;9.15;;
71253;SDS011;59019;47.638;18.966;2023-01-04T03:15:52;21.83;;;9.57;;
71253;SDS011;59019;47.638;18.966;2023-01-04T03:18:21;21.25;;;9.48;;
71253;SDS011;59019;47.638;18.966;2023-01-04T03:20:51;21.93;;;8.93;;
71253;SDS011;59019;47.638;18.966;2023-01-04T03:23:18;21.70;;;9.60;;
71253;SDS011;59019;47.638;18.966;2023-01-04T03:26:40;20.10;;;8.82;;
71253;SDS011;59019;47.638;18.966;2023-01-04T03:29:38;19.15;;;8.45;;
71253;SDS011;59019;47.638;18.966;2023-01-04T03:32:28;19.60;;;9.02;;
71253;SDS011;59019;47.638;18.966;2023-01-04T03:35:28;18.70;;;7.77;;
71253;SDS011;59019;47.638;18.966;2023-01-04T03:44:46;21.23;;;8.50;;
71253;SDS011;59019;47.638;18.966;2023-01-04T03:47:36;21.05;;;9.55;;
71253;SDS011;59019;47.638;18.966;2023-01-04T03:50:31;19.03;;;8.60;;
71253;SDS011;59019;47.638;18.966;2023-01-04T03:53:02;22.02;;;9.07;;
71253;SDS011;59019;47.638;18.966;2023-01-04T03:55:30;20.77;;;9.02;;
71253;SDS011;59019;47.638;18.966;2023-01-04T03:57:59;19.75;;;9.65;;
71253;SDS011;59019;47.638;18.966;2023-01-04T04:00:24;19.03;;;8.67;;
71253;SDS011;59019;47.638;18.966;2023-01-04T04:02:50;20.20;;;8.67;;
71253;SDS011;59019;47.638;18.966;2023-01-04T04:05:17;18.75;;;8.48;;
71253;SDS011;59019;47.638;18.966;2023-01-04T04:08:06;16.83;;;7.40;;
71253;SDS011;59019;47.638;18.966;2023-01-04T04:10:50;18.48;;;7.95;;
71253;SDS011;59019;47.638;18.966;2023-01-04T04:13:16;22.10;;;9.07;;
71253;SDS011;59019;47.638;18.966;2023-01-04T04:15:41;21.87;;;9.97;;
71253;SDS011;59019;47.638;18.966;2023-01-04T04:18:07;20.83;;;9.57;;
71253;SDS011;59019;47.638;18.966;2023-01-04T04:20:32;20.60;;;8.52;;
71253;SDS011;59019;47.638;18.966;2023-01-04T04:22:59;19.50;;;8.88;;
71253;SDS011;59019;47.638;18.966;2023-01-04T04:25:24;20.23;;;8.93;;
71253;SDS011;59019;47.638;18.966;2023-01-04T04:27:49;20.77;;;8.73;;
71253;SDS011;59019;47.638;18.966;2023-01-04T04:30:15;17.33;;;7.43;;
71253;SDS011;59019;47.638;18.966;2023-01-04T04:32:41;19.33;;;8.30;;
71253;SDS011;59019;47.638;18.966;2023-01-04T04:35:06;17.53;;;7.50;;
71253;SDS011;59019;47.638;18.966;2023-01-04T04:37:33;17.98;;;8.13;;
71253;SDS011;59019;47.638;18.966;2023-01-04T04:39:59;17.42;;;7.82;;
71253;SDS011;59019;47.638;18.966;2023-01-04T04:42:25;16.42;;;6.85;;
71253;SDS011;59019;47.638;18.966;2023-01-04T04:44:50;15.93;;;7.03;;
71253;SDS011;59019;47.638;18.966;2023-01-04T04:47:16;14.80;;;6.57;;
71253;SDS011;59019;47.638;18.966;2023-01-04T04:49:41;17.13;;;7.27;;
71253;SDS011;59019;47.638;18.966;2023-01-04T04:52:07;16.13;;;6.63;;
71253;SDS011;59019;47.638;18.966;2023-01-04T04:54:32;14.70;;;6.47;;
71253;SDS011;59019;47.638;18.966;2023-01-04T04:56:58;17.43;;;7.50;;
71253;SDS011;59019;47.638;18.966;2023-01-04T04:59:23;16.77;;;8.00;;
71253;SDS011;59019;47.638;18.966;2023-01-04T05:01:49;16.80;;;7.07;;
71253;SDS011;59019;47.638;18.966;2023-01-04T05:04:15;17.90;;;7.95;;
71253;SDS011;59019;47.638;18.966;2023-01-04T05:06:43;17.98;;;8.45;;
71253;SDS011;59019;47.638;18.966;2023-01-04T05:09:10;16.63;;;7.20;;
71253;SDS011;59019;47.638;18.966;2023-01-04T05:11:39;17.52;;;6.97;;
71253;SDS011;59019;47.638;18.966;2023-01-04T05:14:23;19.52;;;8.07;;
71253;SDS011;59019;47.638;18.966;2023-01-04T05:16:49;21.63;;;8.57;;
71253;SDS011;59019;47.638;18.966;2023-01-04T05:19:15;20.33;;;7.55;;
71253;SDS011;59019;47.638;18.966;2023-01-04T05:21:40;16.13;;;7.10;;
71253;SDS011;59019;47.638;18.966;2023-01-04T05:24:06;20.47;;;7.97;;
71253;SDS011;59019;47.638;18.966;2023-01-04T05:26:34;18.80;;;7.57;;
71253;SDS011;59019;47.638;18.966;2023-01-04T05:29:00;16.57;;;7.73;;
71253;SDS011;59019;47.638;18.966;2023-01-04T05:31:25;17.15;;;7.50;;
71253;SDS011;59019;47.638;18.966;2023-01-04T05:33:51;17.63;;;7.80;;
71253;SDS011;59019;47.638;18.966;2023-01-04T05:36:16;19.50;;;7.90;;
71253;SDS011;59019;47.638;18.966;2023-01-04T05:38:42;20.67;;;8.30;;
71253;SDS011;59019;47.638;18.966;2023-01-04T05:41:07;18.77;;;8.00;;
71253;SDS011;59019;47.638;18.966;2023-01-04T05:43:53;16.23;;;7.30;;
71253;SDS011;59019;47.638;18.966;2023-01-04T05:46:18;18.60;;;7.70;;
71253;SDS011;59019;47.638;18.966;2023-01-04T05:48:44;20.53;;;8.43;;
71253;SDS011;59019;47.638;18.966;2023-01-04T05:51:10;19.13;;;8.90;;
71253;SDS011;59019;47.638;18.966;2023-01-04T05:53:36;19.90;;;9.65;;
71253;SDS011;59019;47.638;18.966;2023-01-04T05:56:01;18.92;;;8.82;;
71253;SDS011;59019;47.638;18.966;2023-01-04T05:58:27;19.77;;;8.17;;
71253;SDS011;59019;47.638;18.966;2023-01-04T06:00:53;21.07;;;8.50;;
71253;SDS011;59019;47.638;18.966;2023-01-04T06:03:18;19.27;;;8.50;;
71253;SDS011;59019;47.638;18.966;2023-01-04T06:05:47;23.73;;;9.43;;
71253;SDS011;59019;47.638;18.966;2023-01-04T06:08:16;19.88;;;8.40;;
71253;SDS011;59019;47.638;18.966;2023-01-04T06:10:42;23.00;;;10.30;;
71253;SDS011;59019;47.638;18.966;2023-01-04T06:13:15;24.00;;;9.55;;
71253;SDS011;59019;47.638;18.966;2023-01-04T06:15:43;21.53;;;9.13;;
71253;SDS011;59019;47.638;18.966;2023-01-04T06:18:09;21.52;;;9.70;;
71253;SDS011;59019;47.638;18.966;2023-01-04T06:20:34;21.33;;;9.52;;
71253;SDS011;59019;47.638;18.966;2023-01-04T06:23:00;20.87;;;9.07;;
71253;SDS011;59019;47.638;18.966;2023-01-04T06:25:25;22.60;;;9.10;;
71253;SDS011;59019;47.638;18.966;2023-01-04T06:27:51;21.87;;;9.37;;
71253;SDS011;59019;47.638;18.966;2023-01-04T06:30:16;17.58;;;7.95;;
71253;SDS011;59019;47.638;18.966;2023-01-04T06:32:42;19.33;;;8.50;;
71253;SDS011;59019;47.638;18.966;2023-01-04T06:35:08;16.97;;;7.40;;
71253;SDS011;59019;47.638;18.966;2023-01-04T06:37:33;17.25;;;7.82;;
71253;SDS011;59019;47.638;18.966;2023-01-04T06:40:00;18.13;;;7.80;;
71253;SDS011;59019;47.638;18.966;2023-01-04T06:42:25;20.65;;;8.82;;
71253;SDS011;59019;47.638;18.966;2023-01-04T06:45:09;21.45;;;9.90;;
71253;SDS011;59019;47.638;18.966;2023-01-04T06:47:35;19.93;;;8.07;;
71253;SDS011;59019;47.638;18.966;2023-01-04T06:50:00;18.52;;;7.90;;
71253;SDS011;59019;47.638;18.966;2023-01-04T06:52:26;16.57;;;7.20;;
71253;SDS011;59019;47.638;18.966;2023-01-04T06:54:51;19.80;;;8.27;;
71253;SDS011;59019;47.638;18.966;2023-01-04T06:57:17;19.50;;;9.10;;
71253;SDS011;59019;47.638;18.966;2023-01-04T06:59:42;19.95;;;10.40;;
71253;SDS011;59019;47.638;18.966;2023-01-04T07:02:09;19.67;;;9.47;;
71253;SDS011;59019;47.638;18.966;2023-01-04T07:04:37;25.50;;;11.02;;
71253;SDS011;59019;47.638;18.966;2023-01-04T07:07:03;21.53;;;10.53;;
71253;SDS011;59019;47.638;18.966;2023-01-04T07:09:28;20.93;;;10.23;;
71253;SDS011;59019;47.638;18.966;2023-01-04T07:11:54;20.67;;;10.37;;
71253;SDS011;59019;47.638;18.966;2023-01-04T07:14:19;22.35;;;10.93;;
71253;SDS011;59019;47.638;18.966;2023-01-04T07:16:44;25.10;;;11.90;;
71253;SDS011;59019;47.638;18.966;2023-01-04T07:19:10;24.00;;;11.13;;
71253;SDS011;59019;47.638;18.966;2023-01-04T07:21:35;20.43;;;9.13;;
71253;SDS011;59019;47.638;18.966;2023-01-04T07:24:01;21.17;;;9.37;;
71253;SDS011;59019;47.638;18.966;2023-01-04T07:26:26;21.02;;;9.23;;
71253;SDS011;59019;47.638;18.966;2023-01-04T07:28:52;24.53;;;10.37;;
71253;SDS011;59019;47.638;18.966;2023-01-04T07:31:36;20.88;;;10.15;;
71253;SDS011;59019;47.638;18.966;2023-01-04T07:34:02;23.15;;;11.00;;
71253;SDS011;59019;47.638;18.966;2023-01-04T07:36:28;23.63;;;11.13;;
71253;SDS011;59019;47.638;18.966;2023-01-04T07:38:54;22.90;;;11.52;;
71253;SDS011;59019;47.638;18.966;2023-01-04T07:41:19;20.47;;;10.03;;
71253;SDS011;59019;47.638;18.966;2023-01-04T07:43:45;23.63;;;11.33;;
71253;SDS011;59019;47.638;18.966;2023-01-04T07:46:10;22.08;;;10.45;;
71253;SDS011;59019;47.638;18.966;2023-01-04T07:48:36;20.17;;;9.10;;
71253;SDS011;59019;47.638;18.966;2023-01-04T07:51:02;21.02;;;9.70;;
71253;SDS011;59019;47.638;18.966;2023-01-04T07:53:27;18.63;;;9.40;;
71253;SDS011;59019;47.638;18.966;2023-01-04T07:55:54;20.57;;;9.63;;
71253;SDS011;59019;47.638;18.966;2023-01-04T07:58:21;19.52;;;9.88;;
71253;SDS011;59019;47.638;18.966;2023-01-04T08:00:47;23.27;;;11.57;;
71253;SDS011;59019;47.638;18.966;2023-01-04T08:03:12;20.58;;;9.38;;
71253;SDS011;59019;47.638;18.966;2023-01-04T08:05:37;19.77;;;9.10;;
71253;SDS011;59019;47.638;18.966;2023-01-04T08:08:03;17.67;;;8.40;;
71253;SDS011;59019;47.638;18.966;2023-01-04T08:10:29;17.35;;;8.13;;
71253;SDS011;59019;47.638;18.966;2023-01-04T08:12:56;16.70;;;6.73;;
71253;SDS011;59019;47.638;18.966;2023-01-04T08:15:23;17.10;;;7.70;;
71253;SDS011;59019;47.638;18.966;2023-01-04T08:17:48;16.77;;;7.10;;
71253;SDS011;59019;47.638;18.966;2023-01-04T08:20:15;17.80;;;8.02;;
71253;SDS011;59019;47.638;18.966;2023-01-04T08:22:40;22.90;;;9.07;;
71253;SDS011;59019;47.638;18.966;2023-01-04T08:25:06;24.73;;;9.77;;
71253;SDS011;59019;47.638;18.966;2023-01-04T08:27:32;24.80;;;9.57;;
71253;SDS011;59019;47.638;18.966;2023-01-04T08:29:57;23.83;;;9.05;;
71253;SDS011;59019;47.638;18.966;2023-01-04T08:32:23;21.35;;;8.85;;
71253;SDS011;59019;47.638;18.966;2023-01-04T08:34:48;22.20;;;9.37;;
71253;SDS011;59019;47.638;18.966;2023-01-04T08:37:14;21.50;;;10.20;;
71253;SDS011;59019;47.638;18.966;2023-01-04T08:39:39;26.10;;;10.88;;
71253;SDS011;59019;47.638;18.966;2023-01-04T08:42:05;34.00;;;15.77;;
71253;SDS011;59019;47.638;18.966;2023-01-04T08:44:30;29.33;;;14.57;;
71253;SDS011;59019;47.638;18.966;2023-01-04T08:46:58;31.45;;;15.63;;
71253;SDS011;59019;47.638;18.966;2023-01-04T08:49:23;24.30;;;11.83;;
71253;SDS011;59019;47.638;18.966;2023-01-04T08:51:49;19.95;;;9.13;;
71253;SDS011;59019;47.638;18.966;2023-01-04T08:54:15;17.93;;;7.63;;
71253;SDS011;59019;47.638;18.966;2023-01-04T08:56:40;16.03;;;6.87;;
71253;SDS011;59019;47.638;18.966;2023-01-04T08:59:08;13.60;;;6.00;;
71253;SDS011;59019;47.638;18.966;2023-01-04T09:01:34;13.60;;;5.60;;
71253;SDS011;59019;47.638;18.966;2023-01-04T09:04:00;16.17;;;6.03;;
71253;SDS011;59019;47.638;18.966;2023-01-04T09:06:26;14.32;;;5.65;;
71253;SDS011;59019;47.638;18.966;2023-01-04T09:08:54;15.32;;;6.70;;
71253;SDS011;59019;47.638;18.966;2023-01-04T09:11:20;14.97;;;6.17;;
71253;SDS011;59019;47.638;18.966;2023-01-04T09:13:47;12.30;;;5.18;;
71253;SDS011;59019;47.638;18.966;2023-01-04T09:16:17;13.93;;;5.85;;
71253;SDS011;59019;47.638;18.966;2023-01-04T09:18:44;12.43;;;5.30;;
71253;SDS011;59019;47.638;18.966;2023-01-04T09:21:11;11.60;;;4.88;;
71253;SDS011;59019;47.638;18.966;2023-01-04T09:23:39;11.10;;;4.47;;
71253;SDS011;59019;47.638;18.966;2023-01-04T09:26:10;10.90;;;4.97;;
71253;SDS011;59019;47.638;18.966;2023-01-04T09:28:37;11.93;;;5.15;;
71253;SDS011;59019;47.638;18.966;2023-01-04T09:31:05;10.80;;;5.03;;
71253;SDS011;59019;47.638;18.966;2023-01-04T09:33:38;9.45;;;4.32;;
71253;SDS011;59019;47.638;18.966;2023-01-04T09:36:05;10.17;;;4.57;;
71253;SDS011;59019;47.638;18.966;2023-01-04T09:38:32;11.10;;;5.30;;
71253;SDS011;59019;47.638;18.966;2023-01-04T09:41:00;13.95;;;5.57;;
71253;SDS011;59019;47.638;18.966;2023-01-04T09:46:39;15.70;;;6.75;;
71253;SDS011;59019;47.638;18.966;2023-01-04T09:49:17;13.77;;;6.77;;
71253;SDS011;59019;47.638;18.966;2023-01-04T09:55:01;13.60;;;6.78;;
71253;SDS011;59019;47.638;18.966;2023-01-04T09:57:25;16.33;;;8.05;;
71253;SDS011;59019;47.638;18.966;2023-01-04T09:59:56;14.82;;;6.25;;
71253;SDS011;59019;47.638;18.966;2023-01-04T10:02:32;12.67;;;5.67;;
71253;SDS011;59019;47.638;18.966;2023-01-04T10:05:05;12.15;;;6.25;;
71253;SDS011;59019;47.638;18.966;2023-01-04T10:07:32;12.68;;;5.70;;
71253;SDS011;59019;47.638;18.966;2023-01-04T10:09:59;15.25;;;6.25;;
71253;SDS011;59019;47.638;18.966;2023-01-04T10:28:28;15.97;;;7.87;;
71253;SDS011;59019;47.638;18.966;2023-01-04T10:33:29;14.23;;;6.70;;
71253;SDS011;59019;47.638;18.966;2023-01-04T10:36:26;15.35;;;7.03;;
71253;SDS011;59019;47.638;18.966;2023-01-04T10:38:57;13.77;;;6.50;;
71253;SDS011;59019;47.638;18.966;2023-01-04T10:41:29;13.02;;;6.45;;
71253;SDS011;59019;47.638;18.966;2023-01-04T10:46:46;11.35;;;5.65;;
71253;SDS011;59019;47.638;18.966;2023-01-04T10:55:15;13.48;;;6.00;;
71253;SDS011;59019;47.638;18.966;2023-01-04T11:00:43;12.27;;;6.15;;
71253;SDS011;59019;47.638;18.966;2023-01-04T11:03:45;11.25;;;4.80;;
71253;SDS011;59019;47.638;18.966;2023-01-04T11:06:38;10.00;;;4.83;;
71253;SDS011;59019;47.638;18.966;2023-01-04T11:09:19;9.80;;;4.30;;
71253;SDS011;59019;47.638;18.966;2023-01-04T11:11:47;9.95;;;4.82;;
71253;SDS011;59019;47.638;18.966;2023-01-04T11:14:15;10.93;;;5.00;;
71253;SDS011;59019;47.638;18.966;2023-01-04T11:16:43;10.68;;;5.10;;
71253;SDS011;59019;47.638;18.966;2023-01-04T11:19:10;10.57;;;4.67;;
71253;SDS011;59019;47.638;18.966;2023-01-04T11:21:39;11.80;;;4.78;;
71253;SDS011;59019;47.638;18.966;2023-01-04T11:24:12;9.13;;;4.70;;
71253;SDS011;59019;47.638;18.966;2023-01-04T11:26:41;10.25;;;4.63;;
71253;SDS011;59019;47.638;18.966;2023-01-04T11:35:06;8.35;;;3.70;;
71253;SDS011;59019;47.638;18.966;2023-01-04T11:37:33;7.93;;;3.70;;
71253;SDS011;59019;47.638;18.966;2023-01-04T11:42:41;9.03;;;4.07;;
71253;SDS011;59019;47.638;18.966;2023-01-04T11:47:50;9.43;;;4.78;;
71253;SDS011;59019;47.638;18.966;2023-01-04T11:50:37;8.82;;;4.45;;
71253;SDS011;59019;47.638;18.966;2023-01-04T11:53:25;9.00;;;4.43;;
71253;SDS011;59019;47.638;18.966;2023-01-04T11:58:35;10.48;;;5.28;;
71253;SDS011;59019;47.638;18.966;2023-01-04T12:01:01;7.53;;;3.45;;
71253;SDS011;59019;47.638;18.966;2023-01-04T12:03:28;8.20;;;3.83;;
71253;SDS011;59019;47.638;18.966;2023-01-04T12:05:56;6.53;;;2.50;;
71253;SDS011;59019;47.638;18.966;2023-01-04T12:11:01;6.60;;;2.35;;
71253;SDS011;59019;47.638;18.966;2023-01-04T12:13:30;4.83;;;1.83;;
71253;SDS011;59019;47.638;18.966;2023-01-04T12:18:47;4.20;;;1.40;;
71253;SDS011;59019;47.638;18.966;2023-01-04T12:21:17;4.33;;;1.37;;
71253;SDS011;59019;47.638;18.966;2023-01-04T12:23:45;3.80;;;1.40;;
71253;SDS011;59019;47.638;18.966;2023-01-04T12:26:11;5.80;;;2.22;;
71253;SDS011;59019;47.638;18.966;2023-01-04T12:28:42;4.93;;;2.00;;
71253;SDS011;59019;47.638;18.966;2023-01-04T12:33:46;5.60;;;2.20;;
71253;SDS011;59019;47.638;18.966;2023-01-04T12:36:19;5.95;;;2.28;;
71253;SDS011;59019;47.638;18.966;2023-01-04T12:54:55;5.35;;;2.13;;
71253;SDS011;59019;47.638;18.966;2023-01-04T13:00:18;6.43;;;2.40;;
71253;SDS011;59019;47.638;18.966;2023-01-04T13:02:44;6.07;;;2.65;;
71253;SDS011;59019;47.638;18.966;2023-01-04T13:05:34;5.78;;;2.35;;
71253;SDS011;59019;47.638;18.966;2023-01-04T13:08:01;4.70;;;2.00;;
71253;SDS011;59019;47.638;18.966;2023-01-04T13:10:30;5.77;;;1.97;;
71253;SDS011;59019;47.638;18.966;2023-01-04T13:17:56;6.13;;;2.28;;
71253;SDS011;59019;47.638;18.966;2023-01-04T13:20:23;5.25;;;2.15;;
71253;SDS011;59019;47.638;18.966;2023-01-04T13:22:54;7.07;;;2.67;;
71253;SDS011;59019;47.638;18.966;2023-01-04T13:25:23;6.28;;;2.58;;
71253;SDS011;59019;47.638;18.966;2023-01-04T13:30:35;4.28;;;1.80;;
71253;SDS011;59019;47.638;18.966;2023-01-04T13:33:16;4.85;;;1.90;;
71253;SDS011;59019;47.638;18.966;2023-01-04T13:35:43;5.05;;;2.20;;
71253;SDS011;59019;47.638;18.966;2023-01-04T13:38:21;6.68;;;2.63;;
71253;SDS011;59019;47.638;18.966;2023-01-04T13:40:47;5.33;;;2.30;;
71253;SDS011;59019;47.638;18.966;2023-01-04T13:48:18;5.05;;;2.00;;
71253;SDS011;59019;47.638;18.966;2023-01-04T13:50:57;5.05;;;2.17;;
71253;SDS011;59019;47.638;18.966;2023-01-04T13:53:28;5.03;;;2.23;;
71253;SDS011;59019;47.638;18.966;2023-01-04T13:55:55;5.90;;;2.53;;
71253;SDS011;59019;47.638;18.966;2023-01-04T13:58:23;8.30;;;3.42;;
71253;SDS011;59019;47.638;18.966;2023-01-04T14:00:55;7.70;;;3.20;;
71253;SDS011;59019;47.638;18.966;2023-01-04T14:03:46;6.25;;;2.60;;
71253;SDS011;59019;47.638;18.966;2023-01-04T14:08:54;10.93;;;3.28;;
71253;SDS011;59019;47.638;18.966;2023-01-04T14:11:24;8.93;;;3.13;;
71253;SDS011;59019;47.638;18.966;2023-01-04T14:14:18;6.43;;;2.90;;
71253;SDS011;59019;47.638;18.966;2023-01-04T14:16:47;6.65;;;2.67;;
71253;SDS011;59019;47.638;18.966;2023-01-04T14:19:27;6.30;;;2.50;;
71253;SDS011;59019;47.638;18.966;2023-01-04T14:22:24;20.95;;;8.50;;
71253;SDS011;59019;47.638;18.966;2023-01-04T14:38:35;17.53;;;8.90;;
71253;SDS011;59019;47.638;18.966;2023-01-04T14:41:09;25.90;;;11.93;;
71253;SDS011;59019;47.638;18.966;2023-01-04T14:46:25;24.55;;;11.60;;
71253;SDS011;59019;47.638;18.966;2023-01-04T14:48:52;30.05;;;15.60;;
71253;SDS011;59019;47.638;18.966;2023-01-04T14:51:21;23.03;;;13.63;;
71253;SDS011;59019;47.638;18.966;2023-01-04T14:53:50;29.73;;;14.73;;
71253;SDS011;59019;47.638;18.966;2023-01-04T14:56:16;23.43;;;11.73;;
71253;SDS011;59019;47.638;18.966;2023-01-04T14:58:43;17.83;;;9.48;;
71253;SDS011;59019;47.638;18.966;2023-01-04T15:01:09;16.67;;;9.50;;
71253;SDS011;59019;47.638;18.966;2023-01-04T15:03:36;20.27;;;12.43;;
71253;SDS011;59019;47.638;18.966;2023-01-04T15:06:02;23.73;;;15.25;;
71253;SDS011;59019;47.638;18.966;2023-01-04T15:08:29;27.55;;;17.38;;
71253;SDS011;59019;47.638;18.966;2023-01-04T15:10:55;32.78;;;22.98;;
71253;SDS011;59019;47.638;18.966;2023-01-04T15:13:20;28.03;;;16.30;;
71253;SDS011;59019;47.638;18.966;2023-01-04T15:15:46;22.27;;;14.30;;
71253;SDS011;59019;47.638;18.966;2023-01-04T15:18:11;23.45;;;14.73;;
71253;SDS011;59019;47.638;18.966;2023-01-04T15:20:37;21.83;;;13.47;;
71253;SDS011;59019;47.638;18.966;2023-01-04T15:23:05;18.45;;;11.85;;
71253;SDS011;59019;47.638;18.966;2023-01-04T15:25:31;15.93;;;9.27;;
71253;SDS011;59019;47.638;18.966;2023-01-04T15:27:57;12.87;;;7.10;;
71253;SDS011;59019;47.638;18.966;2023-01-04T15:30:23;10.90;;;6.22;;
71253;SDS011;59019;47.638;18.966;2023-01-04T15:32:48;13.07;;;6.47;;
71253;SDS011;59019;47.638;18.966;2023-01-04T15:35:14;17.48;;;8.75;;
71253;SDS011;59019;47.638;18.966;2023-01-04T15:37:44;15.80;;;8.17;;
71253;SDS011;59019;47.638;18.966;2023-01-04T15:40:11;16.75;;;8.90;;
71253;SDS011;59019;47.638;18.966;2023-01-04T15:42:38;14.13;;;8.27;;
71253;SDS011;59019;47.638;18.966;2023-01-04T15:45:23;13.02;;;7.40;;
71253;SDS011;59019;47.638;18.966;2023-01-04T15:47:52;20.15;;;11.23;;
71253;SDS011;59019;47.638;18.966;2023-01-04T15:50:18;27.37;;;14.63;;
71253;SDS011;59019;47.638;18.966;2023-01-04T15:52:44;24.23;;;12.85;;
71253;SDS011;59019;47.638;18.966;2023-01-04T15:55:09;28.30;;;14.53;;
71253;SDS011;59019;47.638;18.966;2023-01-04T15:57:36;56.00;;;25.23;;
71253;SDS011;59019;47.638;18.966;2023-01-04T16:00:03;52.67;;;24.57;;
71253;SDS011;59019;47.638;18.966;2023-01-04T16:02:29;46.75;;;23.35;;
71253;SDS011;59019;47.638;18.966;2023-01-04T16:04:55;51.38;;;22.92;;
71253;SDS011;59019;47.638;18.966;2023-01-04T16:07:21;46.77;;;23.37;;
71253;SDS011;59019;47.638;18.966;2023-01-04T16:09:46;53.47;;;25.33;;
71253;SDS011;59019;47.638;18.966;2023-01-04T16:12:12;54.53;;;25.38;;
71253;SDS011;59019;47.638;18.966;2023-01-04T16:14:56;54.93;;;26.53;;
71253;SDS011;59019;47.638;18.966;2023-01-04T16:17:21;50.60;;;24.92;;
71253;SDS011;59019;47.638;18.966;2023-01-04T16:19:47;52.63;;;26.63;;
71253;SDS011;59019;47.638;18.966;2023-01-04T16:22:13;50.63;;;23.50;;
71253;SDS011;59019;47.638;18.966;2023-01-04T16:24:38;46.70;;;23.17;;
71253;SDS011;59019;47.638;18.966;2023-01-04T16:27:03;37.83;;;18.35;;
71253;SDS011;59019;47.638;18.966;2023-01-04T16:29:29;36.93;;;17.57;;
71253;SDS011;59019;47.638;18.966;2023-01-04T16:31:54;35.43;;;18.47;;
71253;SDS011;59019;47.638;18.966;2023-01-04T16:34:20;33.57;;;15.57;;
71253;SDS011;59019;47.638;18.966;2023-01-04T16:36:47;34.42;;;19.23;;
71253;SDS011;59019;47.638;18.966;2023-01-04T16:39:13;43.27;;;23.00;;
71253;SDS011;59019;47.638;18.966;2023-01-04T16:41:39;33.50;;;17.92;;
71253;SDS011;59019;47.638;18.966;2023-01-04T16:44:05;30.23;;;16.10;;
71253;SDS011;59019;47.638;18.966;2023-01-04T16:46:31;31.60;;;18.17;;
71253;SDS011;59019;47.638;18.966;2023-01-04T16:49:00;27.85;;;16.33;;
71253;SDS011;59019;47.638;18.966;2023-01-04T16:51:31;27.40;;;15.17;;
71253;SDS011;59019;47.638;18.966;2023-01-04T16:53:58;25.63;;;13.73;;